createdAt,value
2019-03-15T00:08:34.080Z,19.30
2019-03-15T00:19:07.998Z,20.50
2019-03-15T00:29:53.689Z,18.80
2019-03-15T00:40:38.047Z,21.10
2019-03-15T00:51:24.551Z,22.30
2019-03-15T01:02:08.322Z,16.90
2019-03-15T01:12:51.493Z,19.90
2019-03-15T01:23:36.831Z,19.10
2019-03-15T01:34:22.665Z,15.40
2019-03-15T01:44:58.843Z,14.60
2019-03-15T01:55:44.841Z,14.50
2019-03-15T02:06:31.122Z,15.50
2019-03-15T02:17:17.014Z,13.00
2019-03-15T02:28:01.507Z,14.30
2019-03-15T02:38:47.615Z,12.10
2019-03-15T02:49:32.188Z,11.40
2019-03-15T03:00:17.867Z,11.70
2019-03-15T03:11:03.618Z,14.20
2019-03-15T03:21:47.725Z,13.80
2019-03-15T03:32:25.637Z,12.90
2019-03-15T03:43:10.373Z,12.20
2019-03-15T03:53:46.110Z,13.30
2019-03-15T04:04:32.194Z,12.70
2019-03-15T04:15:17.906Z,14.50
2019-03-15T04:26:04.703Z,12.40
2019-03-15T04:36:48.878Z,18.40
2019-03-15T04:47:34.244Z,18.70
2019-03-15T04:58:20.059Z,15.80
2019-03-15T05:09:06.182Z,17.90
2019-03-15T05:19:49.695Z,17.70
2019-03-15T05:30:34.808Z,20.00
2019-03-15T05:41:19.301Z,16.20
2019-03-15T05:52:03.716Z,22.60
2019-03-15T06:02:48.663Z,17.70
2019-03-15T06:13:33.311Z,19.60
2019-03-15T06:24:19.258Z,22.20
2019-03-15T06:35:04.268Z,18.40
2019-03-15T06:45:50.224Z,20.80
2019-03-15T06:56:35.641Z,23.00
2019-03-15T07:07:22.071Z,22.70
2019-03-15T07:18:08.100Z,22.90
2019-03-15T07:28:53.665Z,17.80
2019-03-15T07:39:39.211Z,19.80
2019-03-15T07:50:25.360Z,10.60
2019-03-15T08:01:09.553Z,5.00
2019-03-15T08:11:56.424Z,5.10
2019-03-15T08:22:41.436Z,4.70
2019-03-15T08:33:26.890Z,5.70
2019-03-15T08:44:12.469Z,3.50
2019-03-15T08:55:05.239Z,2.50
2019-03-15T09:05:38.088Z,3.20
2019-03-15T09:16:23.463Z,1.90
2019-03-15T09:27:10.574Z,2.70
2019-03-15T09:37:53.674Z,2.00
2019-03-15T09:48:43.738Z,1.20
2019-03-15T09:59:25.624Z,0.90
2019-03-15T10:10:13.304Z,0.20
2019-03-15T10:20:53.193Z,0.80
2019-03-15T10:31:39.797Z,0.80
2019-03-15T10:42:23.572Z,0.30
2019-03-15T10:53:09.849Z,0.50
2019-03-15T11:03:53.826Z,0.60
2019-03-15T11:14:36.611Z,1.30
2019-03-15T11:25:21.592Z,0.80
2019-03-15T11:36:07.312Z,1.60
2019-03-15T11:46:53.191Z,0.40
2019-03-15T11:57:40.204Z,1.20
2019-03-15T12:08:23.966Z,2.20
2019-03-15T12:19:07.336Z,2.20
2019-03-15T12:29:54.380Z,1.80
2019-03-15T12:40:40.514Z,2.40
2019-03-15T12:51:32.154Z,1.60
2019-03-15T13:02:09.645Z,2.20
2019-03-15T13:12:57.056Z,2.70
2019-03-15T13:23:39.892Z,2.60
2019-03-15T13:34:26.248Z,1.90
2019-03-15T13:45:11.131Z,2.00
2019-03-15T13:55:54.112Z,2.50
2019-03-15T14:06:37.798Z,3.80
2019-03-15T14:17:21.821Z,4.10
2019-03-15T14:28:07.687Z,1.90
2019-03-15T14:38:51.766Z,3.10
2019-03-15T14:49:38.450Z,1.90
2019-03-15T15:00:22.263Z,1.70
2019-03-15T15:11:09.173Z,2.60
2019-03-15T15:21:53.154Z,1.10
2019-03-15T15:32:23.408Z,0.50
2019-03-15T15:43:09.139Z,0.80
2019-03-15T15:53:52.798Z,1.00
2019-03-15T16:04:38.617Z,2.30
2019-03-15T16:15:24.267Z,1.20
2019-03-15T16:26:10.306Z,2.00
2019-03-15T16:36:55.550Z,1.00
2019-03-15T16:47:41.434Z,0.80
2019-03-15T16:58:26.962Z,0.80
2019-03-15T17:09:10.838Z,0.90
2019-03-15T17:19:54.316Z,0.40
2019-03-15T17:30:39.676Z,0.40
2019-03-15T17:41:25.661Z,1.80
2019-03-15T17:52:10.828Z,0.90
2019-03-15T18:02:55.936Z,1.10
2019-03-15T18:13:40.878Z,0.40
2019-03-15T18:24:23.366Z,1.70
2019-03-15T18:35:04.824Z,0.90
2019-03-15T18:45:45.801Z,1.20
2019-03-15T18:56:22.253Z,0.70
2019-03-15T19:07:02.270Z,0.30
2019-03-15T19:17:44.781Z,0.50
2019-03-15T19:28:30.290Z,0.80
2019-03-15T19:39:08.684Z,1.10
2019-03-15T19:49:53.815Z,1.10
2019-03-15T20:00:31.214Z,1.40
2019-03-15T20:11:16.487Z,1.10
2019-03-15T20:22:01.860Z,3.80
2019-03-15T20:32:46.674Z,4.60
2019-03-15T20:43:30.286Z,4.10
2019-03-15T20:54:08.489Z,4.70
2019-03-15T21:04:54.707Z,5.20
2019-03-15T21:15:39.009Z,4.70
2019-03-15T21:26:25.732Z,5.60
2019-03-15T21:37:09.099Z,5.50
2019-03-15T21:47:53.623Z,7.60
2019-03-15T21:58:37.702Z,5.20
2019-03-15T22:09:22.458Z,5.00
2019-03-15T22:20:06.220Z,4.30
2019-03-15T22:30:47.645Z,4.70
2019-03-15T22:41:31.103Z,6.60
2019-03-15T22:52:17.280Z,12.70
2019-03-15T23:03:00.852Z,13.30
2019-03-15T23:13:46.219Z,10.20
2019-03-15T23:24:29.753Z,10.20
2019-03-15T23:35:15.749Z,11.40
2019-03-15T23:45:57.769Z,10.20
2019-03-15T23:56:44.391Z,9.30
